createdAt,value
2018-11-14T00:00:38.264Z,1022.94
2018-11-14T00:01:38.289Z,1022.96
2018-11-14T00:02:38.200Z,1022.98
2018-11-14T00:03:38.183Z,1022.98
2018-11-14T00:04:38.238Z,1023.00
2018-11-14T00:05:38.163Z,1022.98
2018-11-14T00:06:38.153Z,1023.02
2018-11-14T00:07:38.151Z,1022.98
2018-11-14T00:08:38.187Z,1022.97
2018-11-14T00:09:38.221Z,1022.99
2018-11-14T00:10:38.144Z,1022.98
2018-11-14T00:11:38.109Z,1022.99
2018-11-14T00:12:38.093Z,1022.97
2018-11-14T00:13:38.135Z,1022.97
2018-11-14T00:14:38.113Z,1022.95
2018-11-14T00:15:38.097Z,1022.93
2018-11-14T00:16:38.037Z,1022.96
2018-11-14T00:17:38.032Z,1022.98
2018-11-14T00:18:38.026Z,1022.99
2018-11-14T00:19:38.009Z,1022.96
2018-11-14T00:20:38.001Z,1022.95
2018-11-14T00:21:38.042Z,1022.95
2018-11-14T00:22:37.985Z,1022.97
2018-11-14T00:23:37.959Z,1022.97
2018-11-14T00:24:37.967Z,1022.93
2018-11-14T00:25:37.953Z,1022.96
2018-11-14T00:26:37.943Z,1022.95
2018-11-14T00:27:37.977Z,1022.93
2018-11-14T00:28:37.911Z,1022.96
2018-11-14T00:29:37.908Z,1022.94
2018-11-14T00:30:37.887Z,1022.93
2018-11-14T00:31:37.869Z,1022.97
2018-11-14T00:32:37.909Z,1022.98
2018-11-14T00:33:37.890Z,1022.97
2018-11-14T00:34:37.882Z,1023.00
2018-11-14T00:35:37.896Z,1023.03
2018-11-14T00:36:37.863Z,1023.04
2018-11-14T00:37:37.805Z,1023.05
2018-11-14T00:38:38.047Z,1022.99
2018-11-14T00:39:37.781Z,1023.02
2018-11-14T00:40:37.778Z,1022.99
2018-11-14T00:41:37.803Z,1022.98
2018-11-14T00:42:37.746Z,1022.96
2018-11-14T00:43:37.759Z,1022.99
2018-11-14T00:44:37.762Z,1022.95
2018-11-14T00:45:37.723Z,1022.94
2018-11-14T00:46:37.739Z,1022.97
2018-11-14T00:47:37.708Z,1022.98
2018-11-14T00:48:38.055Z,1022.96
2018-11-14T00:49:37.669Z,1022.98
2018-11-14T00:50:37.657Z,1022.99
2018-11-14T00:51:37.647Z,1022.94
2018-11-14T00:52:37.644Z,1022.96
2018-11-14T00:53:37.630Z,1022.95
2018-11-14T00:54:37.687Z,1022.91
2018-11-14T00:55:37.598Z,1022.92
2018-11-14T00:56:37.594Z,1022.91
2018-11-14T00:57:37.620Z,1022.93
2018-11-14T00:58:37.571Z,1022.91
2018-11-14T00:59:37.564Z,1022.98
2018-11-14T01:00:37.550Z,1022.95
2018-11-14T01:01:37.635Z,1022.97
2018-11-14T01:02:37.598Z,1022.96
2018-11-14T01:03:37.591Z,1022.97
2018-11-14T01:04:37.509Z,1022.94
2018-11-14T01:05:37.488Z,1022.95
2018-11-14T01:06:37.502Z,1022.94
2018-11-14T01:07:37.472Z,1022.91
2018-11-14T01:08:37.625Z,1022.94
2018-11-14T01:09:37.446Z,1022.97
2018-11-14T01:10:37.442Z,1022.93
2018-11-14T01:11:37.432Z,1022.92
2018-11-14T01:12:37.413Z,1022.92
2018-11-14T01:13:37.401Z,1022.90
2018-11-14T01:14:37.479Z,1022.91
2018-11-14T01:15:37.387Z,1022.90
2018-11-14T01:16:37.369Z,1022.91
2018-11-14T01:17:37.577Z,1022.91
2018-11-14T01:18:37.345Z,1022.91
2018-11-14T01:19:37.333Z,1022.95
2018-11-14T01:20:37.389Z,1022.89
2018-11-14T01:21:37.371Z,1022.94
2018-11-14T01:22:37.303Z,1022.91
2018-11-14T01:23:37.290Z,1022.93
2018-11-14T01:24:37.337Z,1022.91
2018-11-14T01:25:37.263Z,1022.88
2018-11-14T01:26:37.304Z,1022.87
2018-11-14T01:27:37.240Z,1022.85
2018-11-14T01:28:37.269Z,1022.86
2018-11-14T01:29:37.226Z,1022.88
2018-11-14T01:30:37.260Z,1022.89
2018-11-14T01:31:37.209Z,1022.86
2018-11-14T01:32:37.187Z,1022.90
2018-11-14T01:33:37.180Z,1022.84
2018-11-14T01:34:37.166Z,1022.88
2018-11-14T01:35:37.166Z,1022.86
2018-11-14T01:36:37.181Z,1022.91
2018-11-14T01:37:37.132Z,1022.85
2018-11-14T01:38:37.187Z,1022.82
2018-11-14T01:39:37.107Z,1022.84
2018-11-14T01:40:37.100Z,1022.80
2018-11-14T01:41:37.105Z,1022.83
2018-11-14T01:42:37.072Z,1022.86
2018-11-14T01:43:37.065Z,1022.87
2018-11-14T01:44:37.098Z,1022.86
2018-11-14T01:45:37.066Z,1022.86
2018-11-14T01:46:37.042Z,1022.84
2018-11-14T01:47:37.018Z,1022.83
2018-11-14T01:48:37.048Z,1022.77
2018-11-14T01:49:37.007Z,1022.77
2018-11-14T01:50:37.076Z,1022.80
2018-11-14T01:51:36.997Z,1022.74
2018-11-14T01:52:36.983Z,1022.75
2018-11-14T01:53:37.010Z,1022.73
2018-11-14T01:54:36.955Z,1022.78
2018-11-14T01:55:36.978Z,1022.77
2018-11-14T01:56:36.932Z,1022.73
2018-11-14T01:57:36.952Z,1022.76
2018-11-14T01:58:36.923Z,1022.75
2018-11-14T01:59:36.909Z,1022.76
2018-11-14T02:00:36.877Z,1022.77
2018-11-14T02:01:36.907Z,1022.70
2018-11-14T02:02:36.848Z,1022.75
2018-11-14T02:03:36.835Z,1022.78
2018-11-14T02:04:36.840Z,1022.77
2018-11-14T02:05:36.854Z,1022.78
2018-11-14T02:06:36.809Z,1022.80
2018-11-14T02:07:36.819Z,1022.79
2018-11-14T02:08:37.057Z,1022.79
2018-11-14T02:09:36.809Z,1022.82
2018-11-14T02:10:36.758Z,1022.83
2018-11-14T02:11:36.791Z,1022.87
2018-11-14T02:12:36.750Z,1022.92
2018-11-14T02:13:36.730Z,1022.94
2018-11-14T02:14:36.716Z,1022.92
2018-11-14T02:15:36.706Z,1022.93
2018-11-14T02:16:36.810Z,1022.89
2018-11-14T02:17:36.708Z,1022.87
2018-11-14T02:18:36.678Z,1022.84
2018-11-14T02:19:36.657Z,1022.85
2018-11-14T02:20:36.675Z,1022.86
2018-11-14T02:21:36.636Z,1022.87
2018-11-14T02:22:36.676Z,1022.94
2018-11-14T02:23:36.627Z,1022.98
2018-11-14T02:24:36.605Z,1022.94
2018-11-14T02:25:36.602Z,1022.91
2018-11-14T02:26:36.589Z,1022.87
2018-11-14T02:27:36.572Z,1022.95
2018-11-14T02:28:36.615Z,1022.92
2018-11-14T02:29:36.597Z,1022.89
2018-11-14T02:30:36.543Z,1022.92
2018-11-14T02:31:36.533Z,1022.89
2018-11-14T02:32:36.521Z,1022.88
2018-11-14T02:33:36.505Z,1022.83
2018-11-14T02:34:36.493Z,1022.80
2018-11-14T02:35:36.530Z,1022.82
2018-11-14T02:36:36.474Z,1022.82
2018-11-14T02:37:36.480Z,1022.80
2018-11-14T02:38:36.676Z,1022.80
2018-11-14T02:39:36.436Z,1022.82
2018-11-14T02:40:36.502Z,1022.80
2018-11-14T02:41:36.450Z,1022.74
2018-11-14T02:42:36.406Z,1022.78
2018-11-14T02:43:36.466Z,1022.76
2018-11-14T02:44:36.422Z,1022.77
2018-11-14T02:45:36.370Z,1022.77
2018-11-14T02:46:36.357Z,1022.78
2018-11-14T02:47:36.388Z,1022.73
2018-11-14T02:48:36.394Z,1022.77
2018-11-14T02:49:36.437Z,1022.80
2018-11-14T02:50:36.315Z,1022.82
2018-11-14T02:51:36.307Z,1022.76
2018-11-14T02:52:36.303Z,1022.72
2018-11-14T02:53:36.293Z,1022.74
2018-11-14T02:54:36.279Z,1022.72
2018-11-14T02:55:36.332Z,1022.74
2018-11-14T02:56:36.254Z,1022.72
2018-11-14T02:57:36.263Z,1022.70
2018-11-14T02:58:36.267Z,1022.73
2018-11-14T02:59:36.215Z,1022.70
2018-11-14T03:00:36.217Z,1022.67
2018-11-14T03:01:36.194Z,1022.71
2018-11-14T03:02:36.188Z,1022.68
2018-11-14T03:03:36.226Z,1022.72
2018-11-14T03:04:36.206Z,1022.65
2018-11-14T03:05:36.179Z,1022.68
2018-11-14T03:06:36.138Z,1022.68
2018-11-14T03:07:36.141Z,1022.64
2018-11-14T03:08:36.202Z,1022.68
2018-11-14T03:09:36.111Z,1022.65
2018-11-14T03:10:36.234Z,1022.62
2018-11-14T03:11:36.113Z,1022.59
2018-11-14T03:12:36.167Z,1022.57
2018-11-14T03:13:36.069Z,1022.58
2018-11-14T03:14:36.047Z,1022.60
2018-11-14T03:15:36.044Z,1022.61
2018-11-14T03:16:36.070Z,1022.62
2018-11-14T03:17:36.021Z,1022.63
2018-11-14T03:18:36.030Z,1022.63
2018-11-14T03:19:35.995Z,1022.62
2018-11-14T03:20:35.984Z,1022.61
2018-11-14T03:21:36.019Z,1022.59
2018-11-14T03:22:36.041Z,1022.59
2018-11-14T03:23:35.955Z,1022.58
2018-11-14T03:24:35.937Z,1022.58
2018-11-14T03:25:35.925Z,1022.52
2018-11-14T03:26:35.918Z,1022.53
2018-11-14T03:27:35.944Z,1022.47
2018-11-14T03:28:35.900Z,1022.54
2018-11-14T03:29:35.888Z,1022.51
2018-11-14T03:30:35.870Z,1022.51
2018-11-14T03:31:35.902Z,1022.53
2018-11-14T03:32:35.848Z,1022.46
2018-11-14T03:33:35.872Z,1022.48
2018-11-14T03:34:35.833Z,1022.51
2018-11-14T03:35:35.829Z,1022.49
2018-11-14T03:36:35.803Z,1022.48
2018-11-14T03:37:35.832Z,1022.44
2018-11-14T03:38:36.082Z,1022.46
2018-11-14T03:39:35.802Z,1022.40
2018-11-14T03:40:35.759Z,1022.38
2018-11-14T03:41:35.751Z,1022.42
2018-11-14T03:42:35.743Z,1022.38
2018-11-14T03:43:35.762Z,1022.40
2018-11-14T03:44:35.718Z,1022.36
2018-11-14T03:45:35.710Z,1022.39
2018-11-14T03:46:35.688Z,1022.37
2018-11-14T03:47:35.685Z,1022.38
2018-11-14T03:48:35.720Z,1022.43
2018-11-14T03:49:35.670Z,1022.44
2018-11-14T03:50:35.645Z,1022.42
2018-11-14T03:51:35.698Z,1022.39
2018-11-14T03:52:35.632Z,1022.39
2018-11-14T03:53:35.633Z,1022.39
2018-11-14T03:54:35.635Z,1022.42
2018-11-14T03:55:35.595Z,1022.39
2018-11-14T03:56:35.585Z,1022.37
2018-11-14T03:57:35.624Z,1022.38
2018-11-14T03:58:35.665Z,1022.37
2018-11-14T03:59:35.588Z,1022.38
2018-11-14T04:00:35.548Z,1022.41
2018-11-14T04:01:35.526Z,1022.41
2018-11-14T04:02:35.537Z,1022.41
2018-11-14T04:03:35.548Z,1022.42
2018-11-14T04:04:35.538Z,1022.45
2018-11-14T04:05:35.893Z,1022.49
2018-11-14T04:06:35.477Z,1022.49
2018-11-14T04:07:35.485Z,1022.49
2018-11-14T04:08:35.652Z,1022.48
2018-11-14T04:09:35.483Z,1022.46
2018-11-14T04:10:35.447Z,1022.43
2018-11-14T04:11:35.413Z,1022.46
2018-11-14T04:12:35.454Z,1022.42
2018-11-14T04:13:35.400Z,1022.40
2018-11-14T04:14:35.382Z,1022.41
2018-11-14T04:15:35.371Z,1022.41
2018-11-14T04:16:35.414Z,1022.35
2018-11-14T04:17:35.362Z,1022.41
2018-11-14T04:18:35.409Z,1022.39
2018-11-14T04:19:35.321Z,1022.39
2018-11-14T04:20:35.310Z,1022.35
2018-11-14T04:21:35.312Z,1022.31
2018-11-14T04:22:35.333Z,1022.30
2018-11-14T04:23:35.279Z,1022.30
2018-11-14T04:24:35.322Z,1022.29
2018-11-14T04:25:35.267Z,1022.20
2018-11-14T04:26:35.306Z,1022.16
2018-11-14T04:27:35.269Z,1022.15
2018-11-14T04:28:35.257Z,1022.17
2018-11-14T04:29:35.216Z,1022.17
2018-11-14T04:30:35.239Z,1022.16
2018-11-14T04:31:35.192Z,1022.21
2018-11-14T04:32:35.229Z,1022.25
2018-11-14T04:33:35.191Z,1022.28
2018-11-14T04:34:35.192Z,1022.32
2018-11-14T04:35:35.186Z,1022.31
2018-11-14T04:36:35.155Z,1022.35
2018-11-14T04:37:35.128Z,1022.29
2018-11-14T04:38:35.220Z,1022.24
2018-11-14T04:39:35.162Z,1022.27
2018-11-14T04:40:35.125Z,1022.31
2018-11-14T04:41:35.083Z,1022.34
2018-11-14T04:42:35.071Z,1022.31
2018-11-14T04:43:35.057Z,1022.29
2018-11-14T04:44:35.067Z,1022.28
2018-11-14T04:45:35.078Z,1022.32
2018-11-14T04:46:35.034Z,1022.32
2018-11-14T04:47:35.056Z,1022.33
2018-11-14T04:48:35.064Z,1022.31
2018-11-14T04:49:34.989Z,1022.24
2018-11-14T04:50:34.997Z,1022.17
2018-11-14T04:51:35.009Z,1022.23
2018-11-14T04:52:34.972Z,1022.15
2018-11-14T04:53:34.946Z,1022.15
2018-11-14T04:54:34.956Z,1022.11
2018-11-14T04:55:35.012Z,1022.19
2018-11-14T04:56:34.915Z,1022.14
2018-11-14T04:57:34.915Z,1022.09
2018-11-14T04:58:34.891Z,1022.08
2018-11-14T04:59:34.893Z,1022.09
2018-11-14T05:00:34.872Z,1022.07
2018-11-14T05:01:34.899Z,1022.06
2018-11-14T05:02:34.928Z,1022.05
2018-11-14T05:03:34.839Z,1022.01
2018-11-14T05:04:34.827Z,1022.01
2018-11-14T05:05:34.815Z,1022.00
2018-11-14T05:06:34.803Z,1021.99
2018-11-14T05:07:34.837Z,1021.94
2018-11-14T05:08:34.794Z,1021.93
2018-11-14T05:09:34.781Z,1021.94
2018-11-14T05:10:34.760Z,1021.98
2018-11-14T05:11:34.766Z,1021.93
2018-11-14T05:12:34.754Z,1021.97
2018-11-14T05:13:34.784Z,1021.95
2018-11-14T05:14:34.720Z,1021.98
2018-11-14T05:15:34.750Z,1021.95
2018-11-14T05:16:34.728Z,1021.95
2018-11-14T05:17:34.680Z,1021.91
2018-11-14T05:18:34.683Z,1021.89
2018-11-14T05:19:34.707Z,1021.82
2018-11-14T05:20:34.674Z,1021.82
2018-11-14T05:21:34.710Z,1021.85
2018-11-14T05:22:34.629Z,1021.83
2018-11-14T05:23:34.614Z,1021.82
2018-11-14T05:24:34.721Z,1021.81
2018-11-14T05:25:34.635Z,1021.80
2018-11-14T05:26:34.589Z,1021.84
2018-11-14T05:27:34.577Z,1021.85
2018-11-14T05:28:34.591Z,1021.85
2018-11-14T05:29:34.554Z,1021.87
2018-11-14T05:30:34.544Z,1021.88
2018-11-14T05:31:34.569Z,1021.87
2018-11-14T05:32:34.519Z,1021.85
2018-11-14T05:33:34.501Z,1021.91
2018-11-14T05:34:34.497Z,1021.85
2018-11-14T05:35:34.492Z,1021.82
2018-11-14T05:36:34.471Z,1021.83
2018-11-14T05:37:34.499Z,1021.87
2018-11-14T05:38:34.670Z,1021.84
2018-11-14T05:39:34.546Z,1021.86
2018-11-14T05:40:34.434Z,1021.89
2018-11-14T05:41:34.431Z,1021.86
2018-11-14T05:42:34.450Z,1021.89
2018-11-14T05:43:34.390Z,1021.84
2018-11-14T05:44:34.396Z,1021.86
2018-11-14T05:45:34.488Z,1021.85
2018-11-14T05:46:34.370Z,1021.87
2018-11-14T05:47:34.351Z,1021.88
2018-11-14T05:48:34.394Z,1021.93
2018-11-14T05:49:34.332Z,1021.91
2018-11-14T05:50:34.331Z,1021.89
2018-11-14T05:51:34.306Z,1021.94
2018-11-14T05:52:34.343Z,1021.98
2018-11-14T05:53:34.286Z,1021.92
2018-11-14T05:54:34.375Z,1021.91
2018-11-14T05:55:34.278Z,1021.86
2018-11-14T05:56:34.297Z,1021.91
2018-11-14T05:57:34.959Z,1021.92
2018-11-14T05:58:34.236Z,1021.94
2018-11-14T05:59:34.218Z,1021.93
2018-11-14T06:00:34.260Z,1021.95
2018-11-14T06:01:34.197Z,1021.92
2018-11-14T06:02:34.195Z,1021.85
2018-11-14T06:03:34.175Z,1021.87
2018-11-14T06:04:34.181Z,1021.86
2018-11-14T06:05:34.150Z,1021.91
2018-11-14T06:06:34.188Z,1021.96
2018-11-14T06:07:34.167Z,1021.95
2018-11-14T06:08:34.243Z,1022.00
2018-11-14T06:09:34.110Z,1022.01
2018-11-14T06:10:34.096Z,1021.98
2018-11-14T06:11:34.132Z,1021.96
2018-11-14T06:12:34.083Z,1021.97
2018-11-14T06:13:34.102Z,1021.91
2018-11-14T06:14:34.058Z,1021.93
2018-11-14T06:15:34.068Z,1021.94
2018-11-14T06:16:34.099Z,1021.90
2018-11-14T06:17:34.048Z,1021.93
2018-11-14T06:18:34.042Z,1021.89
2018-11-14T06:19:33.998Z,1021.89
2018-11-14T06:20:34.027Z,1021.83
2018-11-14T06:21:34.031Z,1021.87
2018-11-14T06:22:33.965Z,1021.87
2018-11-14T06:23:34.008Z,1021.86
2018-11-14T06:24:33.944Z,1021.87
2018-11-14T06:25:33.983Z,1021.89
2018-11-14T06:26:33.956Z,1021.86
2018-11-14T06:27:33.915Z,1021.92
2018-11-14T06:28:33.905Z,1021.90
2018-11-14T06:29:33.896Z,1021.84
2018-11-14T06:30:33.873Z,1021.89
2018-11-14T06:31:33.907Z,1021.95
2018-11-14T06:32:33.847Z,1021.97
2018-11-14T06:33:33.866Z,1021.92
2018-11-14T06:34:33.835Z,1021.93
2018-11-14T06:35:33.814Z,1021.95
2018-11-14T06:36:33.801Z,1022.00
2018-11-14T06:37:33.901Z,1021.98
2018-11-14T06:38:33.812Z,1021.99
2018-11-14T06:39:33.773Z,1022.04
2018-11-14T06:40:33.758Z,1022.01
2018-11-14T06:41:33.797Z,1022.03
2018-11-14T06:42:33.780Z,1022.03
2018-11-14T06:43:33.787Z,1022.09
2018-11-14T06:44:33.719Z,1022.11
2018-11-14T06:45:33.707Z,1022.09
2018-11-14T06:46:33.728Z,1022.07
2018-11-14T06:47:33.685Z,1022.04
2018-11-14T06:48:33.670Z,1021.99
2018-11-14T06:49:33.704Z,1021.93
2018-11-14T06:50:33.647Z,1021.92
2018-11-14T06:51:33.639Z,1021.95
2018-11-14T06:52:33.630Z,1021.99
2018-11-14T06:53:33.621Z,1021.94
2018-11-14T06:54:33.660Z,1022.00
2018-11-14T06:55:33.670Z,1021.99
2018-11-14T06:56:33.703Z,1022.02
2018-11-14T06:57:33.574Z,1021.96
2018-11-14T06:58:33.634Z,1021.95
2018-11-14T06:59:33.682Z,1022.00
2018-11-14T07:00:33.591Z,1022.01
2018-11-14T07:01:33.529Z,1021.99
2018-11-14T07:02:38.336Z,1022.01
2018-11-14T07:03:33.762Z,1022.01
2018-11-14T07:04:33.507Z,1022.07
2018-11-14T07:05:33.615Z,1022.10
2018-11-14T07:06:33.515Z,1022.09
2018-11-14T07:07:33.590Z,1022.10
2018-11-14T07:08:33.696Z,1022.09
2018-11-14T07:09:33.433Z,1022.19
2018-11-14T07:10:33.428Z,1022.18
2018-11-14T07:11:33.431Z,1022.23
2018-11-14T07:12:33.489Z,1022.26
2018-11-14T07:13:33.419Z,1022.23
2018-11-14T07:14:33.385Z,1022.24
2018-11-14T07:15:33.407Z,1022.21
2018-11-14T07:16:33.574Z,1022.23
2018-11-14T07:17:33.352Z,1022.18
2018-11-14T07:18:33.344Z,1022.20
2018-11-14T07:19:33.346Z,1022.24
2018-11-14T07:20:33.364Z,1022.18
2018-11-14T07:21:33.302Z,1022.22
2018-11-14T07:22:33.533Z,1022.14
2018-11-14T07:23:33.313Z,1022.18
2018-11-14T07:24:33.355Z,1022.16
2018-11-14T07:25:33.300Z,1022.08
2018-11-14T07:26:33.242Z,1022.15
2018-11-14T07:27:33.267Z,1022.15
2018-11-14T07:28:33.297Z,1022.13
2018-11-14T07:29:33.238Z,1022.10
2018-11-14T07:30:33.220Z,1022.13
2018-11-14T07:31:33.232Z,1022.16
2018-11-14T07:32:33.207Z,1022.16
2018-11-14T07:33:33.217Z,1022.11
2018-11-14T07:34:33.159Z,1022.09
2018-11-14T07:35:33.163Z,1022.06
2018-11-14T07:36:33.179Z,1022.09
2018-11-14T07:37:33.188Z,1022.10
2018-11-14T07:38:33.308Z,1022.11
2018-11-14T07:39:33.174Z,1022.08
2018-11-14T07:40:33.092Z,1022.04
2018-11-14T07:41:33.083Z,1022.03
2018-11-14T07:42:33.072Z,1022.05
2018-11-14T07:43:33.135Z,1022.11
2018-11-14T07:44:33.506Z,1022.07
2018-11-14T07:45:33.106Z,1022.06
2018-11-14T07:46:33.040Z,1021.97
2018-11-14T07:47:33.028Z,1021.98
2018-11-14T07:48:33.114Z,1021.96
2018-11-14T07:49:33.030Z,1022.03
2018-11-14T07:50:33.080Z,1022.03
2018-11-14T07:51:33.014Z,1022.03
2018-11-14T07:52:32.963Z,1022.01
2018-11-14T07:53:32.956Z,1022.05
2018-11-14T07:54:33.052Z,1022.01
2018-11-14T07:55:32.965Z,1022.08
2018-11-14T07:56:32.926Z,1022.07
2018-11-14T07:57:33.007Z,1022.13
2018-11-14T07:58:32.913Z,1022.12
2018-11-14T07:59:32.884Z,1022.10
2018-11-14T08:00:32.897Z,1022.08
2018-11-14T08:01:32.925Z,1022.12
2018-11-14T08:02:32.857Z,1022.12
2018-11-14T08:03:32.921Z,1022.09
2018-11-14T08:04:32.835Z,1022.04
2018-11-14T08:05:32.865Z,1022.09
2018-11-14T08:06:32.818Z,1022.10
2018-11-14T08:07:32.801Z,1022.13
2018-11-14T08:08:32.881Z,1022.12
2018-11-14T08:09:32.822Z,1022.18
2018-11-14T08:10:32.791Z,1022.12
2018-11-14T08:11:32.866Z,1022.10
2018-11-14T08:12:32.758Z,1022.15
2018-11-14T08:13:32.789Z,1022.17
2018-11-14T08:14:32.782Z,1022.14
2018-11-14T08:15:32.785Z,1022.16
2018-11-14T08:16:32.686Z,1022.12
2018-11-14T08:17:32.676Z,1022.18
2018-11-14T08:18:32.696Z,1022.16
2018-11-14T08:19:32.649Z,1022.19
2018-11-14T08:20:32.645Z,1022.18
2018-11-14T08:21:32.677Z,1022.13
2018-11-14T08:22:32.706Z,1022.20
2018-11-14T08:23:32.607Z,1022.15
2018-11-14T08:24:32.602Z,1022.09
2018-11-14T08:25:32.631Z,1022.13
2018-11-14T08:26:32.582Z,1022.08
2018-11-14T08:27:32.600Z,1022.11
2018-11-14T08:28:32.548Z,1022.13
2018-11-14T08:29:32.563Z,1022.11
2018-11-14T08:30:32.702Z,1022.12
2018-11-14T08:31:32.519Z,1022.12
2018-11-14T08:32:32.506Z,1022.13
2018-11-14T08:33:32.550Z,1022.16
2018-11-14T08:34:32.488Z,1022.16
2018-11-14T08:35:32.500Z,1022.20
2018-11-14T08:36:32.502Z,1022.19
2018-11-14T08:37:32.508Z,1022.21
2018-11-14T08:38:32.710Z,1022.21
2018-11-14T08:39:32.428Z,1022.20
2018-11-14T08:40:32.412Z,1022.25
2018-11-14T08:41:32.423Z,1022.25
2018-11-14T08:42:32.395Z,1022.20
2018-11-14T08:43:32.432Z,1022.22
2018-11-14T08:44:32.391Z,1022.16
2018-11-14T08:45:32.399Z,1022.12
2018-11-14T08:46:32.379Z,1022.12
2018-11-14T08:47:32.345Z,1022.23
2018-11-14T08:48:32.390Z,1022.27
2018-11-14T08:49:32.317Z,1022.31
2018-11-14T08:50:32.301Z,1022.22
2018-11-14T08:51:32.357Z,1022.21
2018-11-14T08:52:32.407Z,1022.22
2018-11-14T08:53:32.264Z,1022.22
2018-11-14T08:54:32.264Z,1022.20
2018-11-14T08:55:32.274Z,1022.18
2018-11-14T08:56:32.246Z,1022.23
2018-11-14T08:57:32.226Z,1022.24
2018-11-14T08:58:32.360Z,1022.27
2018-11-14T08:59:32.218Z,1022.29
2018-11-14T09:00:32.189Z,1022.25
2018-11-14T09:01:32.181Z,1022.25
2018-11-14T09:02:32.179Z,1022.24
2018-11-14T09:03:32.165Z,1022.27
2018-11-14T09:04:32.178Z,1022.26
2018-11-14T09:05:32.156Z,1022.23
2018-11-14T09:06:32.127Z,1022.19
2018-11-14T09:07:32.121Z,1022.18
2018-11-14T09:08:32.299Z,1022.27
2018-11-14T09:09:32.088Z,1022.24
2018-11-14T09:10:32.111Z,1022.26
2018-11-14T09:11:32.081Z,1022.27
2018-11-14T09:12:32.142Z,1022.34
2018-11-14T09:13:32.045Z,1022.29
2018-11-14T09:14:32.131Z,1022.30
2018-11-14T09:15:32.022Z,1022.25
2018-11-14T09:16:32.005Z,1022.29
2018-11-14T09:17:31.990Z,1022.34
2018-11-14T09:18:35.816Z,1022.31
2018-11-14T09:19:31.971Z,1022.35
2018-11-14T09:20:32.011Z,1022.37
2018-11-14T09:21:31.956Z,1022.36
2018-11-14T09:22:31.944Z,1022.39
2018-11-14T09:23:31.921Z,1022.37
2018-11-14T09:24:31.917Z,1022.41
2018-11-14T09:25:31.905Z,1022.39
2018-11-14T09:26:31.932Z,1022.40
2018-11-14T09:27:31.880Z,1022.42
2018-11-14T09:28:31.874Z,1022.44
2018-11-14T09:29:31.998Z,1022.43
2018-11-14T09:30:31.899Z,1022.37
2018-11-14T09:31:31.839Z,1022.40
2018-11-14T09:32:31.825Z,1022.40
2018-11-14T09:33:31.811Z,1022.40
2018-11-14T09:34:31.801Z,1022.42
2018-11-14T09:35:31.850Z,1022.42
2018-11-14T09:36:31.892Z,1022.42
2018-11-14T09:37:31.771Z,1022.37
2018-11-14T09:38:31.757Z,1022.44
2018-11-14T09:39:31.750Z,1022.39
2018-11-14T09:40:31.731Z,1022.37
2018-11-14T09:41:31.860Z,1022.39
2018-11-14T09:42:31.806Z,1022.36
2018-11-14T09:43:31.713Z,1022.35
2018-11-14T09:44:31.722Z,1022.35
2018-11-14T09:45:31.681Z,1022.34
2018-11-14T09:46:31.664Z,1022.29
2018-11-14T09:47:31.717Z,1022.31
2018-11-14T09:48:31.666Z,1022.34
2018-11-14T09:49:31.696Z,1022.32
2018-11-14T09:50:31.717Z,1022.34
2018-11-14T09:51:32.142Z,1022.32
2018-11-14T09:52:31.631Z,1022.29
2018-11-14T09:53:31.594Z,1022.29
2018-11-14T09:54:31.616Z,1022.29
2018-11-14T09:55:31.570Z,1022.32
2018-11-14T09:56:31.654Z,1022.30
2018-11-14T09:57:31.539Z,1022.30
2018-11-14T09:58:31.526Z,1022.33
2018-11-14T09:59:31.588Z,1022.30
2018-11-14T10:00:31.538Z,1022.29
2018-11-14T10:01:31.532Z,1022.17
2018-11-14T10:02:31.523Z,1022.22
2018-11-14T10:03:31.538Z,1022.14
2018-11-14T10:04:31.995Z,1022.10
2018-11-14T10:05:31.500Z,1022.10
2018-11-14T10:06:31.440Z,1022.10
2018-11-14T10:07:31.438Z,1022.09
2018-11-14T10:08:31.438Z,1022.08
2018-11-14T10:09:31.420Z,1022.11
2018-11-14T10:10:31.444Z,1022.06
2018-11-14T10:11:31.396Z,1022.06
2018-11-14T10:12:31.472Z,1022.01
2018-11-14T10:13:31.374Z,1022.07
2018-11-14T10:14:31.368Z,1022.09
2018-11-14T10:15:31.417Z,1022.05
2018-11-14T10:16:31.370Z,1022.05
2018-11-14T10:17:31.314Z,1022.03
2018-11-14T10:18:31.396Z,1022.05
2018-11-14T10:19:31.305Z,1022.03
2018-11-14T10:20:31.296Z,1022.08
2018-11-14T10:21:31.368Z,1022.02
2018-11-14T10:22:31.377Z,1021.99
2018-11-14T10:23:31.247Z,1021.94
2018-11-14T10:24:31.233Z,1021.98
2018-11-14T10:25:31.256Z,1021.97
2018-11-14T10:26:31.245Z,1021.95
2018-11-14T10:27:31.250Z,1021.93
2018-11-14T10:28:31.186Z,1021.89
2018-11-14T10:29:31.179Z,1021.90
2018-11-14T10:30:31.169Z,1021.91
2018-11-14T10:31:31.218Z,1021.93
2018-11-14T10:32:31.188Z,1021.89
2018-11-14T10:33:31.193Z,1021.82
2018-11-14T10:34:31.644Z,1021.87
2018-11-14T10:35:31.113Z,1021.75
2018-11-14T10:36:31.135Z,1021.75
2018-11-14T10:37:31.102Z,1021.71
2018-11-14T10:38:31.398Z,1021.76
2018-11-14T10:39:31.120Z,1021.78
2018-11-14T10:40:31.157Z,1021.72
2018-11-14T10:41:31.043Z,1021.70
2018-11-14T10:42:31.126Z,1021.73
2018-11-14T10:43:31.137Z,1021.72
2018-11-14T10:44:31.055Z,1021.67
2018-11-14T10:45:31.036Z,1021.65
2018-11-14T10:46:30.985Z,1021.67
2018-11-14T10:47:30.976Z,1021.59
2018-11-14T10:48:30.981Z,1021.59
2018-11-14T10:49:30.999Z,1021.56
2018-11-14T10:50:30.952Z,1021.60
2018-11-14T10:51:30.929Z,1021.56
2018-11-14T10:52:30.921Z,1021.57
2018-11-14T10:53:30.907Z,1021.49
2018-11-14T10:54:30.887Z,1021.52
2018-11-14T10:55:30.927Z,1021.50
2018-11-14T10:56:30.911Z,1021.53
2018-11-14T10:57:30.862Z,1021.49
2018-11-14T10:58:30.922Z,1021.46
2018-11-14T10:59:30.951Z,1021.45
2018-11-14T11:00:30.825Z,1021.38
2018-11-14T11:01:30.867Z,1021.40
2018-11-14T11:02:30.804Z,1021.44
2018-11-14T11:03:30.791Z,1021.39
2018-11-14T11:04:30.804Z,1021.39
2018-11-14T11:05:30.792Z,1021.41
2018-11-14T11:06:30.755Z,1021.45
2018-11-14T11:07:32.227Z,1021.42
2018-11-14T11:08:30.961Z,1021.39
2018-11-14T11:09:30.774Z,1021.36
2018-11-14T11:10:30.745Z,1021.41
2018-11-14T11:11:30.740Z,1021.41
2018-11-14T11:12:30.819Z,1021.44
2018-11-14T11:13:30.720Z,1021.41
2018-11-14T11:14:30.715Z,1021.34
2018-11-14T11:15:30.654Z,1021.32
2018-11-14T11:17:40.041Z,1021.43
2018-11-14T11:18:39.942Z,1021.37
2018-11-14T11:19:39.952Z,1021.33
2018-11-14T11:20:39.879Z,1021.33
2018-11-14T11:21:39.863Z,1021.32
2018-11-14T11:22:39.904Z,1021.34
2018-11-14T11:23:39.908Z,1021.31
2018-11-14T11:27:31.059Z,1021.31
2018-11-14T11:27:58.321Z,1021.30
2018-11-14T11:28:58.333Z,1021.32
2018-11-14T11:29:58.283Z,1021.22
2018-11-14T11:30:58.311Z,1021.21
2018-11-14T11:31:58.258Z,1021.22
2018-11-14T11:32:58.282Z,1021.26
2018-11-14T11:33:58.281Z,1021.22
2018-11-14T11:34:58.220Z,1021.22
2018-11-14T11:35:58.207Z,1021.11
2018-11-14T11:36:58.204Z,1021.14
2018-11-14T11:37:58.219Z,1021.13
2018-11-14T11:38:58.192Z,1021.04
2018-11-14T11:39:58.218Z,1021.02
2018-11-14T11:40:58.151Z,1021.04
2018-11-14T11:41:58.175Z,1020.99
2018-11-14T11:42:58.133Z,1020.96
2018-11-14T11:43:58.161Z,1020.92
2018-11-14T11:44:58.129Z,1020.95
2018-11-14T11:45:58.340Z,1020.93
2018-11-14T11:46:58.244Z,1020.91
2018-11-14T11:47:58.153Z,1020.90
2018-11-14T11:48:58.377Z,1020.85
2018-11-14T11:49:58.113Z,1020.91
2018-11-14T11:50:58.037Z,1020.86
2018-11-14T11:51:58.091Z,1020.90
2018-11-14T11:52:58.277Z,1020.87
2018-11-14T11:53:58.020Z,1020.82
2018-11-14T11:54:58.015Z,1020.83
2018-11-14T11:55:58.068Z,1020.79
2018-11-14T11:56:57.977Z,1020.84
2018-11-14T11:57:57.977Z,1020.81
2018-11-14T11:58:57.947Z,1020.78
2018-11-14T11:59:58.029Z,1020.85
2018-11-14T12:00:57.969Z,1020.87
2018-11-14T12:01:57.925Z,1020.89
2018-11-14T12:02:57.938Z,1020.88
2018-11-14T12:03:57.892Z,1020.82
2018-11-14T12:04:57.904Z,1020.87
2018-11-14T12:05:58.000Z,1020.87
2018-11-14T12:06:57.909Z,1020.87
2018-11-14T12:07:57.852Z,1020.84
2018-11-14T12:08:57.857Z,1020.78